createdAt,value
2018-04-05T00:00:31.767Z,7.60
2018-04-05T00:02:58.031Z,7.60
2018-04-05T00:05:24.266Z,7.60
2018-04-05T00:07:50.521Z,7.70
2018-04-05T00:10:16.756Z,7.90
2018-04-05T00:12:43.008Z,8.10
2018-04-05T00:15:09.247Z,8.10
2018-04-05T00:17:35.482Z,8.20
2018-04-05T00:20:02.474Z,8.30
2018-04-05T00:22:28.702Z,8.20
2018-04-05T00:24:54.947Z,8.30
2018-04-05T00:27:21.183Z,8.30
2018-04-05T00:29:47.442Z,8.40
2018-04-05T00:32:13.753Z,8.40
2018-04-05T00:34:40.239Z,8.30
2018-04-05T00:37:06.282Z,8.20
2018-04-05T00:39:32.541Z,8.20
2018-04-05T00:41:58.779Z,8.10
2018-04-05T00:44:25.048Z,8.10
2018-04-05T00:46:51.278Z,8.00
2018-04-05T00:49:17.629Z,7.90
2018-04-05T00:51:43.858Z,7.80
2018-04-05T00:54:10.115Z,7.90
2018-04-05T00:56:36.362Z,7.90
2018-04-05T00:59:02.762Z,7.90
2018-04-05T01:01:28.999Z,7.80
2018-04-05T01:03:55.266Z,7.70
2018-04-05T01:06:21.778Z,7.70
2018-04-05T01:08:48.728Z,7.70
2018-04-05T01:11:16.286Z,7.60
2018-04-05T01:13:43.640Z,7.70
2018-04-05T01:16:10.996Z,7.70
2018-04-05T01:18:37.250Z,7.70
2018-04-05T01:21:04.254Z,7.70
2018-04-05T01:23:30.490Z,7.70
2018-04-05T01:25:56.745Z,7.80
2018-04-05T01:28:23.031Z,7.80
2018-04-05T01:30:49.282Z,7.80
2018-04-05T01:33:27.758Z,7.90
2018-04-05T01:35:54.015Z,7.90
2018-04-05T01:38:20.250Z,8.00
2018-04-05T01:40:46.508Z,8.00
2018-04-05T01:43:12.738Z,8.00
2018-04-05T01:45:39.026Z,8.10
2018-04-05T01:48:05.358Z,8.10
2018-04-05T01:50:31.609Z,8.10
2018-04-05T01:52:57.843Z,8.10
2018-04-05T01:55:24.101Z,8.20
2018-04-05T01:57:51.082Z,8.20
2018-04-05T02:00:17.334Z,8.20
2018-04-05T02:02:43.871Z,8.20
2018-04-05T02:05:10.405Z,8.20
2018-04-05T02:07:36.643Z,8.20
2018-04-05T02:10:02.989Z,8.30
2018-04-05T02:12:29.227Z,8.30
2018-04-05T02:14:55.486Z,8.30
2018-04-05T02:17:21.721Z,8.40
2018-04-05T02:19:47.978Z,8.40
2018-04-05T02:22:14.248Z,8.40
2018-04-05T02:24:40.569Z,8.40
2018-04-05T02:27:06.796Z,8.40
2018-04-05T02:29:33.050Z,8.40
2018-04-05T02:32:00.042Z,8.40
2018-04-05T02:34:26.305Z,8.40
2018-04-05T02:36:52.535Z,8.40
2018-04-05T02:39:18.818Z,8.40
2018-04-05T02:41:45.004Z,8.30
2018-04-05T02:44:11.225Z,8.30
2018-04-05T02:46:37.431Z,8.30
2018-04-05T02:49:03.649Z,8.40
2018-04-05T02:51:29.861Z,8.40
2018-04-05T02:53:56.077Z,8.50
2018-04-05T02:56:22.273Z,8.50
2018-04-05T02:58:48.460Z,8.60
2018-04-05T03:01:14.668Z,8.60
2018-04-05T03:03:40.880Z,8.60
2018-04-05T03:06:07.908Z,8.60
2018-04-05T03:08:34.111Z,8.60
2018-04-05T03:11:00.319Z,8.60
2018-04-05T03:13:26.511Z,8.60
2018-04-05T03:15:53.466Z,8.60
2018-04-05T03:18:20.400Z,8.60
2018-04-05T03:20:47.380Z,8.60
2018-04-05T03:23:13.593Z,8.60
2018-04-05T03:25:39.813Z,8.60
2018-04-05T03:28:06.745Z,8.60
2018-04-05T03:30:33.720Z,8.60
2018-04-05T03:32:59.935Z,8.60
2018-04-05T03:35:26.907Z,8.60
2018-04-05T03:37:53.100Z,8.60
2018-04-05T03:40:20.057Z,8.60
2018-04-05T03:42:46.984Z,8.60
2018-04-05T03:45:13.232Z,8.60
2018-04-05T03:47:40.164Z,8.60
2018-04-05T03:50:07.096Z,8.60
2018-04-05T03:52:33.321Z,8.60
2018-04-05T03:54:59.508Z,8.60
2018-04-05T03:57:25.720Z,8.60
2018-04-05T03:59:51.913Z,8.60
2018-04-05T04:02:18.132Z,8.60
2018-04-05T04:04:45.092Z,8.60
2018-04-05T04:07:11.304Z,8.60
2018-04-05T04:09:37.504Z,8.60
2018-04-05T04:12:03.781Z,8.60
2018-04-05T04:14:29.985Z,8.60
2018-04-05T04:16:56.201Z,8.50
2018-04-05T04:19:22.392Z,8.40
2018-04-05T04:21:49.496Z,8.20
2018-04-05T04:24:15.684Z,8.20
2018-04-05T04:26:41.868Z,8.10
2018-04-05T04:29:08.077Z,8.00
2018-04-05T04:31:34.302Z,8.10
2018-04-05T04:34:00.530Z,8.00
2018-04-05T04:36:26.715Z,7.90
2018-04-05T04:38:52.940Z,7.80
2018-04-05T04:41:19.901Z,7.70
2018-04-05T04:43:46.125Z,7.70
2018-04-05T04:46:12.577Z,7.70
2018-04-05T04:48:38.858Z,7.60
2018-04-05T04:51:05.047Z,7.60
2018-04-05T04:53:31.273Z,7.50
2018-04-05T04:55:57.471Z,7.50
2018-04-05T04:58:23.681Z,7.50
2018-04-05T05:00:50.613Z,7.50
2018-04-05T05:03:16.829Z,7.50
2018-04-05T05:05:43.052Z,7.60
2018-04-05T05:08:09.280Z,7.60
2018-04-05T05:10:35.467Z,7.60
2018-04-05T05:13:01.685Z,7.60
2018-04-05T05:15:28.606Z,7.70
2018-04-05T05:17:54.824Z,7.60
2018-04-05T05:20:21.033Z,7.70
2018-04-05T05:22:47.257Z,7.70
2018-04-05T05:25:13.488Z,7.70
2018-04-05T05:27:39.713Z,7.80
2018-04-05T05:30:05.899Z,7.90
2018-04-05T05:32:32.895Z,8.20
2018-04-05T05:34:59.083Z,8.10
2018-04-05T05:37:25.300Z,8.30
2018-04-05T05:39:52.232Z,8.80
2018-04-05T05:42:18.444Z,8.70
2018-04-05T05:44:44.641Z,9.00
2018-04-05T05:47:10.866Z,9.20
2018-04-05T05:49:37.087Z,9.40
2018-04-05T05:52:03.340Z,9.60
2018-04-05T05:54:29.534Z,9.90
2018-04-05T05:56:55.761Z,10.10
2018-04-05T05:59:21.948Z,10.30
2018-04-05T06:01:48.176Z,10.70
2018-04-05T06:04:14.368Z,10.90
2018-04-05T06:06:40.552Z,11.20
2018-04-05T06:09:06.792Z,11.50
2018-04-05T06:11:33.724Z,10.90
2018-04-05T06:14:00.685Z,10.80
2018-04-05T06:16:27.620Z,10.50
2018-04-05T06:18:54.583Z,10.40
2018-04-05T06:21:21.508Z,10.50
2018-04-05T06:23:48.468Z,10.50
2018-04-05T06:26:15.405Z,10.40
2018-04-05T06:28:42.360Z,10.00
2018-04-05T06:31:09.288Z,9.70
2018-04-05T06:33:35.532Z,9.70
2018-04-05T06:36:02.469Z,9.50
2018-04-05T06:38:29.419Z,9.50
2018-04-05T06:40:56.362Z,9.90
2018-04-05T06:43:23.359Z,10.20
2018-04-05T06:45:49.552Z,10.10
2018-04-05T06:48:16.532Z,10.00
2018-04-05T06:50:42.733Z,10.00
2018-04-05T06:53:08.949Z,10.30
2018-04-05T06:55:35.893Z,10.40
2018-04-05T06:58:02.850Z,10.20
2018-04-05T07:00:29.110Z,10.10
2018-04-05T07:02:56.040Z,9.90
2018-04-05T07:05:22.238Z,9.90
2018-04-05T07:07:49.189Z,9.80
2018-04-05T07:10:16.129Z,9.90
2018-04-05T07:12:43.085Z,10.10
2018-04-05T07:15:10.042Z,10.20
2018-04-05T07:17:36.260Z,10.20
2018-04-05T07:20:03.218Z,10.10
2018-04-05T07:22:29.437Z,10.10
2018-04-05T07:24:56.397Z,11.40
2018-04-05T07:27:22.603Z,11.40
2018-04-05T07:29:49.560Z,11.60
2018-04-05T07:32:16.517Z,11.30
2018-04-05T07:34:42.733Z,11.30
2018-04-05T07:37:09.664Z,11.50
2018-04-05T07:39:35.885Z,11.50
2018-04-05T07:42:02.105Z,11.90
2018-04-05T07:44:28.316Z,11.80
2018-04-05T07:46:54.514Z,12.40
2018-04-05T07:49:20.728Z,12.30
2018-04-05T07:51:47.656Z,11.80
2018-04-05T07:54:14.609Z,11.40
2018-04-05T07:56:41.599Z,11.50
2018-04-05T07:59:07.891Z,11.40
2018-04-05T08:01:34.820Z,11.90
2018-04-05T08:04:01.032Z,11.90
2018-04-05T08:06:27.224Z,11.70
2018-04-05T08:08:53.589Z,11.80
2018-04-05T08:11:19.781Z,11.90
2018-04-05T08:13:45.977Z,12.80
2018-04-05T08:16:12.935Z,13.00
2018-04-05T08:18:39.129Z,13.00
2018-04-05T08:21:05.345Z,12.30
2018-04-05T08:23:31.540Z,12.30
2018-04-05T08:25:57.756Z,12.20
2018-04-05T08:28:23.944Z,12.70
2018-04-05T08:30:50.165Z,12.70
2018-04-05T08:33:16.385Z,12.30
2018-04-05T08:35:42.597Z,11.90
2018-04-05T08:38:08.799Z,11.60
2018-04-05T08:40:35.072Z,11.50
2018-04-05T08:43:01.269Z,11.40
2018-04-05T08:45:27.481Z,11.50
2018-04-05T08:47:54.403Z,12.30
2018-04-05T08:50:21.355Z,12.10
2018-04-05T08:52:48.288Z,11.90
2018-04-05T08:55:14.512Z,11.90
2018-04-05T08:57:40.713Z,11.80
2018-04-05T09:00:06.905Z,11.60
2018-04-05T09:02:33.125Z,11.50
2018-04-05T09:05:00.103Z,11.90
2018-04-05T09:07:26.292Z,11.90
2018-04-05T09:09:53.227Z,11.80
2018-04-05T09:12:19.444Z,11.80
2018-04-05T09:14:45.647Z,12.30
2018-04-05T09:17:11.889Z,12.40
2018-04-05T09:19:38.081Z,12.50
2018-04-05T09:22:04.336Z,12.40
2018-04-05T09:24:30.524Z,12.80
2018-04-05T09:26:57.604Z,13.50
2018-04-05T09:29:23.797Z,13.50
2018-04-05T09:31:50.723Z,13.10
2018-04-05T09:34:17.699Z,12.60
2018-04-05T09:36:43.911Z,12.60
2018-04-05T09:39:10.878Z,12.10
2018-04-05T09:41:37.820Z,12.00
2018-04-05T09:44:04.016Z,12.00
2018-04-05T09:46:30.430Z,11.90
2018-04-05T09:48:56.636Z,12.00
2018-04-05T09:51:22.820Z,13.70
2018-04-05T09:53:49.788Z,14.60
2018-04-05T09:56:16.164Z,14.50
2018-04-05T09:58:42.416Z,13.90
2018-04-05T10:01:16.049Z,12.90
2018-04-05T10:03:42.236Z,12.90
2018-04-05T10:06:09.224Z,12.60
2018-04-05T10:08:35.421Z,12.60
2018-04-05T10:11:02.380Z,14.70
2018-04-05T10:13:29.312Z,15.80
2018-04-05T10:15:56.272Z,16.20
2018-04-05T10:18:23.205Z,17.70
2018-04-05T10:20:49.424Z,17.70
2018-04-05T10:23:15.626Z,17.40
2018-04-05T10:25:42.157Z,15.70
2018-04-05T10:28:08.419Z,15.00
2018-04-05T10:30:41.564Z,14.80
2018-04-05T10:33:07.786Z,14.70
2018-04-05T10:35:34.000Z,14.30
2018-04-05T10:38:00.957Z,13.20
2018-04-05T10:40:27.173Z,13.20
2018-04-05T10:42:54.110Z,12.70
2018-04-05T10:45:21.077Z,13.00
2018-04-05T10:47:47.284Z,13.00
2018-04-05T10:50:14.249Z,15.30
2018-04-05T10:52:40.442Z,15.20
2018-04-05T10:55:08.135Z,15.80
2018-04-05T10:57:35.072Z,17.50
2018-04-05T11:00:02.033Z,18.50
2018-04-05T11:02:28.965Z,19.30
2018-04-05T11:04:55.932Z,19.00
2018-04-05T11:07:22.116Z,18.90
2018-04-05T11:09:49.048Z,18.70
2018-04-05T11:12:15.264Z,18.60
2018-04-05T11:14:41.452Z,19.60
2018-04-05T11:17:08.412Z,19.90
2018-04-05T11:19:34.600Z,19.90
2018-04-05T11:22:00.820Z,19.70
2018-04-05T11:24:27.012Z,17.10
2018-04-05T11:26:53.249Z,14.20
2018-04-05T11:29:19.436Z,12.30
2018-04-05T11:31:46.408Z,9.90
2018-04-05T11:34:12.718Z,9.80
2018-04-05T11:36:38.932Z,9.40
2018-04-05T11:39:05.884Z,8.70
2018-04-05T11:41:32.852Z,8.50
2018-04-05T11:43:59.312Z,8.50
2018-04-05T11:46:25.520Z,8.50
2018-04-05T11:48:51.708Z,8.50
2018-04-05T11:51:17.925Z,8.60
2018-04-05T11:53:44.116Z,8.60
2018-04-05T11:56:10.380Z,8.60
2018-04-05T11:58:36.597Z,8.60
2018-04-05T12:01:02.838Z,8.60
2018-04-05T12:03:29.030Z,8.60
2018-04-05T12:05:55.262Z,8.50
2018-04-05T12:08:21.456Z,8.50
2018-04-05T12:10:48.408Z,8.70
2018-04-05T12:13:14.599Z,8.60
2018-04-05T12:15:40.796Z,8.90
2018-04-05T12:18:07.032Z,9.20
2018-04-05T12:20:33.228Z,9.40
2018-04-05T12:22:59.465Z,9.60
2018-04-05T12:25:25.647Z,9.60
2018-04-05T12:27:51.865Z,9.70
2018-04-05T12:30:18.071Z,9.80
2018-04-05T12:32:44.356Z,10.10
2018-04-05T12:35:11.279Z,10.60
2018-04-05T12:37:38.255Z,10.70
2018-04-05T12:40:05.090Z,10.70
2018-04-05T12:42:31.952Z,10.60
2018-04-05T12:44:58.784Z,10.70
2018-04-05T12:47:25.756Z,10.70
2018-04-05T12:49:51.944Z,10.60
2018-04-05T12:52:18.162Z,10.70
2018-04-05T12:54:44.357Z,10.90
2018-04-05T12:57:10.584Z,11.10
2018-04-05T12:59:36.821Z,11.60
2018-04-05T13:02:02.988Z,12.70
2018-04-05T13:04:29.201Z,12.90
2018-04-05T13:06:55.396Z,13.00
2018-04-05T13:09:21.617Z,13.90
2018-04-05T13:11:47.880Z,14.60
2018-04-05T13:14:14.097Z,16.00
2018-04-05T13:16:40.284Z,16.00
2018-04-05T13:19:07.245Z,13.40
2018-04-05T13:21:33.431Z,13.30
2018-04-05T13:23:59.663Z,12.90
2018-04-05T13:26:27.337Z,12.50
2018-04-05T13:28:54.288Z,12.70
2018-04-05T13:31:21.223Z,13.30
2018-04-05T13:33:47.457Z,13.30
2018-04-05T13:36:14.392Z,14.20
2018-04-05T13:38:42.116Z,14.20
2018-04-05T13:41:08.300Z,14.20
2018-04-05T13:43:35.220Z,13.50
2018-04-05T13:46:01.434Z,13.40
2018-04-05T13:48:27.629Z,14.60
2018-04-05T13:50:53.844Z,14.10
2018-04-05T13:53:20.779Z,12.90
2018-04-05T13:55:47.739Z,12.80
2018-04-05T13:58:14.348Z,12.80
2018-04-05T14:00:40.556Z,13.20
2018-04-05T14:03:06.744Z,12.90
2018-04-05T14:05:32.948Z,13.00
2018-04-05T14:07:59.881Z,14.10
2018-04-05T14:10:26.836Z,13.80
2018-04-05T14:12:53.763Z,12.90
2018-04-05T14:15:19.976Z,12.90
2018-04-05T14:17:46.172Z,12.20
2018-04-05T14:20:12.412Z,11.70
2018-04-05T14:22:38.612Z,11.60
2018-04-05T14:25:04.760Z,12.00
2018-04-05T14:27:30.949Z,12.50
2018-04-05T14:29:57.880Z,12.60
2018-04-05T14:32:24.092Z,12.60
2018-04-05T14:34:50.303Z,11.80
2018-04-05T14:37:16.532Z,11.10
2018-04-05T14:39:42.716Z,10.60
2018-04-05T14:42:10.064Z,10.40
2018-04-05T14:44:36.996Z,10.40
2018-04-05T14:47:03.213Z,10.40
2018-04-05T14:49:29.404Z,10.70
2018-04-05T14:51:55.609Z,10.90
2018-04-05T14:54:22.540Z,11.10
2018-04-05T14:56:49.496Z,12.20
2018-04-05T14:59:16.432Z,12.70
2018-04-05T15:01:43.388Z,13.20
2018-04-05T15:04:10.320Z,13.50
2018-04-05T15:06:37.272Z,13.60
2018-04-05T15:09:05.257Z,13.60
2018-04-05T15:11:32.214Z,12.60
2018-04-05T15:13:58.396Z,12.60
2018-04-05T15:16:24.628Z,12.70
2018-04-05T15:18:50.876Z,11.70
2018-04-05T15:21:17.838Z,10.30
2018-04-05T15:23:44.774Z,9.80
2018-04-05T15:26:11.800Z,9.60
2018-04-05T15:28:37.983Z,9.50
2018-04-05T15:31:04.196Z,9.20
2018-04-05T15:33:30.409Z,9.10
2018-04-05T15:35:56.641Z,9.00
2018-04-05T15:38:23.585Z,8.90
2018-04-05T15:40:50.541Z,8.90
2018-04-05T15:43:16.738Z,8.90
2018-04-05T15:45:42.948Z,9.00
2018-04-05T15:48:09.146Z,9.30
2018-04-05T15:50:35.357Z,9.30
2018-04-05T15:53:01.558Z,9.50
2018-04-05T15:55:27.768Z,9.80
2018-04-05T15:57:53.956Z,9.40
2018-04-05T16:00:20.251Z,9.10
2018-04-05T16:02:47.183Z,8.50
2018-04-05T16:05:13.407Z,8.40
2018-04-05T16:07:39.616Z,8.30
2018-04-05T16:10:05.845Z,8.20
2018-04-05T16:12:32.028Z,8.20
2018-04-05T16:14:58.956Z,8.10
2018-04-05T16:17:25.923Z,8.00
2018-04-05T16:19:53.204Z,7.90
2018-04-05T16:22:19.413Z,7.90
2018-04-05T16:24:45.605Z,7.80
2018-04-05T16:27:11.827Z,7.70
2018-04-05T16:29:38.013Z,7.70
2018-04-05T16:32:04.273Z,7.50
2018-04-05T16:34:30.459Z,7.50
2018-04-05T16:36:56.664Z,7.40
2018-04-05T16:39:23.601Z,7.40
2018-04-05T16:41:50.565Z,7.40
2018-04-05T16:44:17.496Z,7.30
2018-04-05T16:46:44.461Z,7.30
2018-04-05T16:49:10.720Z,7.30
2018-04-05T16:51:36.935Z,7.20
2018-04-05T16:54:03.123Z,7.10
2018-04-05T16:56:29.336Z,7.10
2018-04-05T16:58:55.524Z,7.00
2018-04-05T17:01:21.744Z,7.00
2018-04-05T17:03:47.940Z,7.00
2018-04-05T17:06:14.896Z,7.00
2018-04-05T17:08:41.840Z,6.90
2018-04-05T17:11:08.800Z,6.90
2018-04-05T17:13:35.736Z,6.70
2018-04-05T17:16:02.756Z,6.60
2018-04-05T17:18:28.952Z,6.60
2018-04-05T17:20:55.164Z,6.50
2018-04-05T17:23:21.447Z,6.40
2018-04-05T17:25:47.663Z,6.40
2018-04-05T17:28:13.853Z,6.30
2018-04-05T17:30:40.125Z,6.30
2018-04-05T17:33:06.357Z,6.30
2018-04-05T17:35:32.577Z,6.30
2018-04-05T17:37:58.764Z,6.20
2018-04-05T17:40:24.976Z,6.20
2018-04-05T17:42:51.951Z,6.10
2018-04-05T17:45:18.167Z,6.10
2018-04-05T17:47:44.397Z,6.00
2018-04-05T17:50:10.609Z,6.00
2018-04-05T17:52:37.796Z,5.90
2018-04-05T17:55:04.013Z,5.90
2018-04-05T17:57:30.200Z,5.90
2018-04-05T17:59:56.439Z,5.90
2018-04-05T18:02:23.376Z,5.80
2018-04-05T18:04:49.619Z,5.80
2018-04-05T18:07:16.559Z,5.70
2018-04-05T18:09:43.575Z,5.70
2018-04-05T18:12:09.812Z,5.70
2018-04-05T18:14:36.008Z,5.70
2018-04-05T18:17:02.233Z,5.60
2018-04-05T18:19:28.425Z,5.60
2018-04-05T18:21:55.378Z,5.50
2018-04-05T18:24:22.307Z,5.50
2018-04-05T18:26:48.543Z,5.40
2018-04-05T18:29:15.524Z,5.40
2018-04-05T18:31:42.452Z,5.40
2018-04-05T18:34:09.404Z,5.40
2018-04-05T18:36:35.616Z,5.40
2018-04-05T18:39:01.856Z,5.30
2018-04-05T18:41:28.807Z,5.20
2018-04-05T18:43:54.992Z,5.20
2018-04-05T18:46:21.200Z,5.10
2018-04-05T18:48:47.388Z,5.10
2018-04-05T18:51:13.601Z,5.20
2018-04-05T18:53:40.548Z,5.20
2018-04-05T18:56:07.512Z,5.20
2018-04-05T18:58:33.708Z,5.20
2018-04-05T19:00:59.937Z,5.20
2018-04-05T19:03:26.869Z,5.10
2018-04-05T19:05:53.092Z,5.10
2018-04-05T19:08:19.279Z,5.10
2018-04-05T19:10:45.500Z,5.00
2018-04-05T19:13:11.720Z,4.90
2018-04-05T19:15:38.652Z,4.80
2018-04-05T19:18:04.868Z,4.80
2018-04-05T19:20:31.070Z,4.80
2018-04-05T19:22:58.152Z,4.70
2018-04-05T19:25:24.357Z,4.70
2018-04-05T19:27:50.576Z,4.70
2018-04-05T19:30:16.756Z,4.70
2018-04-05T19:32:43.736Z,4.60
2018-04-05T19:35:09.929Z,4.50
2018-04-05T19:37:36.885Z,4.40
2018-04-05T19:40:03.812Z,4.40
2018-04-05T19:42:30.775Z,4.40
2018-04-05T19:44:57.704Z,4.30
2018-04-05T19:47:24.656Z,4.30
2018-04-05T19:49:51.584Z,4.30
2018-04-05T19:52:18.545Z,4.30
2018-04-05T19:54:45.472Z,4.30
2018-04-05T19:57:11.711Z,4.30
2018-04-05T19:59:37.912Z,4.30
2018-04-05T20:02:04.101Z,4.20
2018-04-05T20:04:30.335Z,4.20
2018-04-05T20:06:56.589Z,4.20
2018-04-05T20:09:22.804Z,4.20
2018-04-05T20:11:48.989Z,4.10
2018-04-05T20:14:15.948Z,4.10
2018-04-05T20:16:42.876Z,4.10
2018-04-05T20:19:09.108Z,4.10
2018-04-05T20:21:35.301Z,4.10
2018-04-05T20:24:01.531Z,4.10
2018-04-05T20:26:27.731Z,4.00
2018-04-05T20:28:53.944Z,4.00
2018-04-05T20:31:20.197Z,3.90
2018-04-05T20:33:46.433Z,3.90
2018-04-05T20:36:12.624Z,3.80
2018-04-05T20:38:39.613Z,3.60
2018-04-05T20:41:05.800Z,3.60
2018-04-05T20:43:32.757Z,3.50
2018-04-05T20:45:58.949Z,3.50
2018-04-05T20:48:25.167Z,3.40
2018-04-05T20:50:51.359Z,3.30
2018-04-05T20:53:17.603Z,3.40
2018-04-05T20:55:43.790Z,3.30
2018-04-05T20:58:10.740Z,3.20
2018-04-05T21:00:37.672Z,3.10
2018-04-05T21:03:04.633Z,3.10
2018-04-05T21:05:31.564Z,3.10
2018-04-05T21:07:58.512Z,3.10
2018-04-05T21:10:25.453Z,3.00
2018-04-05T21:12:52.403Z,3.00
2018-04-05T21:15:19.339Z,3.00
2018-04-05T21:17:46.663Z,3.00
2018-04-05T21:20:12.949Z,2.90
2018-04-05T21:22:39.871Z,2.80
2018-04-05T21:25:06.828Z,2.80
2018-04-05T21:27:33.844Z,2.70
2018-04-05T21:30:00.028Z,2.70
2018-04-05T21:32:26.234Z,2.70
2018-04-05T21:34:52.504Z,2.70
2018-04-05T21:37:18.692Z,2.60
2018-04-05T21:39:45.674Z,2.60
2018-04-05T21:42:11.905Z,2.60
2018-04-05T21:44:38.091Z,2.60
2018-04-05T21:47:05.048Z,2.50
2018-04-05T21:49:31.976Z,2.50
2018-04-05T21:51:58.192Z,2.50
2018-04-05T21:54:24.388Z,2.50
2018-04-05T21:56:50.609Z,2.40
2018-04-05T21:59:16.793Z,2.30
2018-04-05T22:01:43.001Z,2.10
2018-04-05T22:04:09.222Z,2.00
2018-04-05T22:06:35.473Z,1.90
2018-04-05T22:09:01.684Z,1.80
2018-04-05T22:11:27.873Z,1.80
2018-04-05T22:13:54.097Z,1.70
2018-04-05T22:16:20.284Z,1.70
2018-04-05T22:18:47.313Z,1.60
2018-04-05T22:21:13.560Z,1.60
2018-04-05T22:23:39.836Z,1.50
2018-04-05T22:26:06.040Z,1.50
2018-04-05T22:28:33.056Z,1.50
2018-04-05T22:30:59.258Z,1.50
2018-04-05T22:33:25.492Z,1.50
2018-04-05T22:35:51.676Z,1.40
2018-04-05T22:38:18.647Z,1.40
2018-04-05T22:40:44.837Z,1.30
2018-04-05T22:43:11.028Z,1.30
2018-04-05T22:45:37.244Z,1.30
2018-04-05T22:48:03.428Z,1.20
2018-04-05T22:50:30.376Z,1.10
2018-04-05T22:52:57.377Z,1.10
2018-04-05T22:55:23.593Z,1.10
2018-04-05T22:57:49.792Z,1.00
2018-04-05T23:00:19.760Z,1.00
2018-04-05T23:02:45.956Z,1.00
2018-04-05T23:05:12.169Z,0.90
2018-04-05T23:07:39.096Z,0.80
2018-04-05T23:10:06.070Z,0.80
2018-04-05T23:12:32.256Z,0.80
2018-04-05T23:14:58.468Z,0.80
2018-04-05T23:17:24.693Z,0.80
2018-04-05T23:19:50.896Z,0.80
2018-04-05T23:22:17.088Z,0.80
2018-04-05T23:24:44.040Z,0.70
2018-04-05T23:27:10.977Z,0.70
2018-04-05T23:29:37.956Z,0.80
2018-04-05T23:32:04.166Z,0.80
2018-04-05T23:34:31.201Z,0.80
2018-04-05T23:36:58.160Z,0.70
2018-04-05T23:39:25.101Z,0.70
2018-04-05T23:41:52.056Z,0.70
2018-04-05T23:44:18.994Z,0.70
2018-04-05T23:46:46.357Z,0.70
2018-04-05T23:49:13.288Z,0.60
2018-04-05T23:51:40.229Z,0.60
2018-04-05T23:54:06.494Z,0.60
2018-04-05T23:56:32.689Z,0.50
2018-04-05T23:58:59.655Z,0.40
